Mar Caribe Primero — EA6222 — position and weather

sailwx.info

Track history (hours):
 
Tides and Currents Weather Stations Pressure Air Temp Water Temp Dewpoint Dewpoint Depression Visibility Wind Speed Wind Dir Waves Ship Positions

Mar Caribe Primero

Last reported at 2016-Aug-16 09:33 UTC. Time now 2016-Aug-29 07:10 UTC.
Position N 45°21' W 004°00'.
Warning: this ship's position is 12 days out of date.

Length 20 m.

Type: Fishing. MMSI: 224073630.

Date/timePositionNaut miles runAvg speedWind from/ knotsBaromVisibWave heightAir tempDewpointWater temp
2016-Aug-16 09:33N 45°21' W 004°00'8 4.1
2016-Aug-16 07:31N 45°14' W 004°06'55 1.4
2016-Aug-14 16:33N 44°24' W 003°34'8 8.1
2016-Aug-14 15:33N 44°32' W 003°36'10 4.2
2016-Aug-14 13:13N 44°41' W 003°38'2 2.1
2016-Aug-14 12:28N 44°43' W 003°38'1 0.6
2016-Aug-14 11:30N 44°43' W 003°38'8 1.1
2016-Aug-14 04:32N 44°46' W 003°48'1 0.5
2016-Aug-14 02:29N 44°47' W 003°49'11 0.7
2016-Aug-13 09:16N 44°56' W 003°38'3 4.7
2016-Aug-13 08:33N 44°57' W 003°34'7 6.6
2016-Aug-13 07:33N 44°60' W 003°26'6 6.2
2016-Aug-13 06:33N 45°01' W 003°17'4 3.4
2016-Aug-13 05:29N 45°00' W 003°22'1 0.2
2016-Aug-12 22:03N 44°59' W 003°20'1 1.2
2016-Aug-12 21:33N 44°60' W 003°20'  
2016-Aug-07 17:32N 45°21' W 003°45'4 4.3
2016-Aug-07 16:33N 45°17' W 003°48'2 1.0
2016-Aug-07 14:21N 45°18' W 003°45'33 2.4
2016-Aug-07 00:27N 45°38' W 004°23'1 0.8
2016-Aug-06 23:33N 45°38' W 004°22'1 0.9
2016-Aug-06 22:33N 45°38' W 004°21'6 2.1
2016-Aug-06 19:33N 45°39' W 004°12'  
Track history (hours):
 
Tides and Currents Weather Stations Pressure Air Temp Water Temp Dewpoint Dewpoint Depression Visibility Wind Speed Wind Dir Waves Ship Positions

Mar Caribe Primero

Last reported at 2016-Aug-16 09:33 UTC. Time now 2016-Aug-29 07:10 UTC.
Position N 45°21' W 004°00'.
Warning: this ship's position is 12 days out of date.

Length 20 m.

Type: Fishing. MMSI: 224073630.

Date/timePositionNaut miles runAvg speedWind from/ knotsBaromVisibWave heightAir tempDewpointWater temp
2016-Aug-16 09:33N 45°21' W 004°00'8 4.1
2016-Aug-16 07:31N 45°14' W 004°06'55 1.4
2016-Aug-14 16:33N 44°24' W 003°34'8 8.1
2016-Aug-14 15:33N 44°32' W 003°36'10 4.2
2016-Aug-14 13:13N 44°41' W 003°38'2 2.1
2016-Aug-14 12:28N 44°43' W 003°38'1 0.6
2016-Aug-14 11:30N 44°43' W 003°38'8 1.1
2016-Aug-14 04:32N 44°46' W 003°48'1 0.5
2016-Aug-14 02:29N 44°47' W 003°49'11 0.7
2016-Aug-13 09:16N 44°56' W 003°38'3 4.7
2016-Aug-13 08:33N 44°57' W 003°34'7 6.6
2016-Aug-13 07:33N 44°60' W 003°26'6 6.2
2016-Aug-13 06:33N 45°01' W 003°17'4 3.4
2016-Aug-13 05:29N 45°00' W 003°22'1 0.2
2016-Aug-12 22:03N 44°59' W 003°20'1 1.2
2016-Aug-12 21:33N 44°60' W 003°20'  
2016-Aug-07 17:32N 45°21' W 003°45'4 4.3
2016-Aug-07 16:33N 45°17' W 003°48'2 1.0
2016-Aug-07 14:21N 45°18' W 003°45'33 2.4
2016-Aug-07 00:27N 45°38' W 004°23'1 0.8
2016-Aug-06 23:33N 45°38' W 004°22'1 0.9
2016-Aug-06 22:33N 45°38' W 004°21'6 2.1
2016-Aug-06 19:33N 45°39' W 004°12'  

Dump ship's entire track history